Time;durP1;ratioP1;P1;durP2;ratioP2;P2;SDS_P1;SDS_P2;PMS_P1;PMS_P2;Temp;Humidity;BMP_temperature;BMP_pressure;BME280_temperature;BME280_humidity;BME280_pressure;Samples;Min_cycle;Max_cycle;Signal;HPM_P1;HPM_P2
2021/10/27 00:02:15;;;;;;;2.97;1.00;;;;;;;;;;5048046;27;20044;-83
2021/10/27 00:04:41;;;;;;;3.50;1.63;;;;;;;;;;5046938;27;20037;-86
2021/10/27 00:07:07;;;;;;;4.30;1.55;;;;;;;;;;5046677;28;20500;-85
2021/10/27 00:09:34;;;;;;;3.78;1.13;;;;;;;;;;5046849;27;20021;-87
2021/10/27 00:11:59;;;;;;;4.05;1.02;;;;;;;;;;5050524;28;20033;-86
2021/10/27 00:14:26;;;;;;;2.10;0.90;;;;;;;;;;5050842;28;20021;-91
2021/10/27 00:16:52;;;;;;;3.38;1.30;;;;;;;;;;5050923;27;20102;-82
2021/10/27 00:19:18;;;;;;;3.45;1.25;;;;;;;;;;5049264;27;20090;-85
2021/10/27 00:21:44;;;;;;;3.50;1.17;;;;;;;;;;5049270;27;20033;-87
2021/10/27 00:24:11;;;;;;;3.35;1.42;;;;;;;;;;5050400;28;20038;-87
2021/10/27 00:26:37;;;;;;;2.65;1.20;;;;;;;;;;5047810;27;20457;-83
2021/10/27 00:29:03;;;;;;;3.33;1.38;;;;;;;;;;5051258;28;20017;-86
2021/10/27 00:31:29;;;;;;;2.53;1.20;;;;;;;;;;5053131;28;20067;-84
2021/10/27 00:33:55;;;;;;;3.22;1.30;;;;;;;;;;5056954;28;20017;-86
2021/10/27 00:36:21;;;;;;;3.38;1.10;;;;;;;;;;5051040;27;20481;-82
2021/10/27 00:38:47;;;;;;;3.38;1.13;;;;;;;;;;5051287;27;20021;-94
2021/10/27 00:41:13;;;;;;;2.22;1.20;;;;;;;;;;5057478;28;20115;-92
2021/10/27 00:43:40;;;;;;;3.05;1.38;;;;;;;;;;5059156;28;20033;-94
2021/10/27 00:46:16;;;;;;;3.40;1.40;;;;;;;;;;5057060;27;20092;-84
2021/10/27 00:48:42;;;;;;;5.40;1.65;;;;;;;;;;5054425;27;20036;-89
2021/10/27 00:51:08;;;;;;;3.47;1.30;;;;;;;;;;5048215;28;20033;-88
2021/10/27 00:53:35;;;;;;;4.53;1.60;;;;;;;;;;5051290;27;20465;-90
2021/10/27 00:56:01;;;;;;;1.75;1.30;;;;;;;;;;5051162;27;20064;-85
2021/10/27 00:58:27;;;;;;;4.03;1.60;;;;;;;;;;5051268;28;20412;-92
2021/10/27 01:00:53;;;;;;;2.75;1.30;;;;;;;;;;5049915;27;20075;-86
2021/10/27 01:03:19;;;;;;;5.47;1.55;;;;;;;;;;5052838;27;20561;-90
2021/10/27 01:05:45;;;;;;;3.60;1.30;;;;;;;;;;5051604;27;20021;-89
2021/10/27 01:08:11;;;;;;;3.47;1.20;;;;;;;;;;5058374;27;20113;-86
2021/10/27 01:10:37;;;;;;;3.85;1.40;;;;;;;;;;5052955;28;20021;-89
2021/10/27 01:13:03;;;;;;;2.35;0.93;;;;;;;;;;5050711;27;20025;-87
2021/10/27 01:15:29;;;;;;;3.85;1.23;;;;;;;;;;5049690;28;20025;-87
2021/10/27 01:17:56;;;;;;;6.00;1.70;;;;;;;;;;5049670;27;20085;-87
2021/10/27 01:20:22;;;;;;;3.95;1.20;;;;;;;;;;5049405;28;20028;-88
2021/10/27 01:22:48;;;;;;;2.25;1.08;;;;;;;;;;5049625;27;20037;-88
2021/10/27 01:25:14;;;;;;;2.88;1.17;;;;;;;;;;5053791;28;20100;-81
2021/10/27 01:27:47;;;;;;;3.75;1.25;;;;;;;;;;5063843;28;20040;-82
2021/10/27 01:30:14;;;;;;;2.88;1.20;;;;;;;;;;5062936;28;20025;-91
2021/10/27 01:32:40;;;;;;;2.33;1.10;;;;;;;;;;5050656;28;20074;-87
2021/10/27 01:35:07;;;;;;;3.00;1.38;;;;;;;;;;5050691;27;20108;-84
2021/10/27 01:37:35;;;;;;;3.33;1.30;;;;;;;;;;5049659;27;20021;-83
2021/10/27 01:40:01;;;;;;;2.60;1.20;;;;;;;;;;5051150;28;20025;-88
2021/10/27 01:42:27;;;;;;;3.53;1.58;;;;;;;;;;5051363;27;20112;-86
2021/10/27 01:44:53;;;;;;;2.92;0.93;;;;;;;;;;5049903;27;20025;-85
2021/10/27 01:47:19;;;;;;;3.28;1.17;;;;;;;;;;5050641;28;20035;-85
2021/10/27 01:49:45;;;;;;;3.70;1.13;;;;;;;;;;5050077;27;20017;-87
2021/10/27 01:52:11;;;;;;;3.85;1.25;;;;;;;;;;5049836;27;20529;-84
2021/10/27 01:54:39;;;;;;;4.93;1.35;;;;;;;;;;5050098;27;20485;-85
2021/10/27 01:57:07;;;;;;;2.50;1.20;;;;;;;;;;5049821;28;20013;-86
2021/10/27 01:59:33;;;;;;;2.42;0.98;;;;;;;;;;5048878;27;20025;-85
2021/10/27 02:01:59;;;;;;;3.13;1.10;;;;;;;;;;5049441;27;20036;-82
2021/10/27 02:04:25;;;;;;;3.97;0.90;;;;;;;;;;5050140;28;20021;-88
2021/10/27 02:06:51;;;;;;;3.83;1.15;;;;;;;;;;5049563;27;20029;-83
2021/10/27 02:09:18;;;;;;;3.33;1.00;;;;;;;;;;5050169;27;20025;-86
2021/10/27 02:11:44;;;;;;;4.07;1.45;;;;;;;;;;5048511;27;20035;-82
2021/10/27 02:14:10;;;;;;;2.65;1.30;;;;;;;;;;5049473;28;20021;-89
2021/10/27 02:16:37;;;;;;;3.60;1.50;;;;;;;;;;5052840;28;20477;-84
2021/10/27 02:19:04;;;;;;;3.90;1.17;;;;;;;;;;5051438;28;20389;-84
2021/10/27 02:21:30;;;;;;;2.80;0.95;;;;;;;;;;5052956;27;20020;-82
2021/10/27 02:23:56;;;;;;;3.70;1.30;;;;;;;;;;5050893;27;20468;-90
2021/10/27 02:26:22;;;;;;;2.42;1.27;;;;;;;;;;5051010;28;20025;-82
2021/10/27 02:28:48;;;;;;;3.25;1.30;;;;;;;;;;5055110;28;20430;-82
2021/10/27 02:31:14;;;;;;;2.05;0.93;;;;;;;;;;5055854;27;20033;-87
2021/10/27 02:33:40;;;;;;;3.40;1.05;;;;;;;;;;5049029;28;20545;-84
2021/10/27 02:36:06;;;;;;;2.20;1.17;;;;;;;;;;5049240;27;20060;-87
2021/10/27 02:38:32;;;;;;;4.00;1.38;;;;;;;;;;5049397;27;20024;-90
2021/10/27 02:40:59;;;;;;;2.85;1.30;;;;;;;;;;5048968;28;20104;-86
2021/10/27 02:43:25;;;;;;;2.45;1.13;;;;;;;;;;5049539;28;20149;-85
2021/10/27 02:45:51;;;;;;;4.45;1.27;;;;;;;;;;5049172;27;20484;-82
2021/10/27 02:48:17;;;;;;;2.42;1.17;;;;;;;;;;5049552;27;20049;-89
2021/10/27 02:50:43;;;;;;;2.13;0.90;;;;;;;;;;5049324;27;20070;-90
2021/10/27 02:53:10;;;;;;;4.03;1.13;;;;;;;;;;5047568;28;20032;-90
2021/10/27 02:55:36;;;;;;;1.52;0.80;;;;;;;;;;5049337;27;20035;-84
2021/10/27 02:58:02;;;;;;;2.78;0.98;;;;;;;;;;5049025;27;20028;-84
2021/10/27 03:00:29;;;;;;;2.58;1.20;;;;;;;;;;5047614;27;20491;-86
2021/10/27 03:02:55;;;;;;;2.05;1.10;;;;;;;;;;5047758;28;20056;-89
2021/10/27 03:05:22;;;;;;;3.22;1.40;;;;;;;;;;5047941;28;20025;-83
2021/10/27 03:07:48;;;;;;;2.72;1.25;;;;;;;;;;5049556;27;20047;-90
2021/10/27 03:10:15;;;;;;;2.17;0.85;;;;;;;;;;5047956;27;20029;-89
2021/10/27 03:12:41;;;;;;;4.28;1.10;;;;;;;;;;5049196;27;20032;-89
2021/10/27 03:15:07;;;;;;;1.77;0.80;;;;;;;;;;5048103;27;20044;-90
2021/10/27 03:17:33;;;;;;;2.83;1.27;;;;;;;;;;5047774;28;20025;-91
2021/10/27 03:19:59;;;;;;;3.63;1.00;;;;;;;;;;5050594;27;20103;-93
2021/10/27 03:22:25;;;;;;;3.08;1.40;;;;;;;;;;5053177;27;20113;-83
2021/10/27 03:24:51;;;;;;;5.18;1.40;;;;;;;;;;5049136;28;20029;-82
2021/10/27 03:27:17;;;;;;;3.05;1.20;;;;;;;;;;5048829;28;20025;-85
2021/10/27 03:29:43;;;;;;;2.80;1.00;;;;;;;;;;5048572;28;20552;-84
2021/10/27 03:32:09;;;;;;;4.65;1.55;;;;;;;;;;5048251;28;20056;-83
2021/10/27 03:34:37;;;;;;;3.60;0.98;;;;;;;;;;5047132;27;20029;-86
2021/10/27 03:37:03;;;;;;;3.13;1.10;;;;;;;;;;5048175;27;20027;-85
2021/10/27 03:39:29;;;;;;;2.03;1.15;;;;;;;;;;5048307;27;20029;-83
2021/10/27 03:41:55;;;;;;;3.25;1.10;;;;;;;;;;5048141;28;20044;-85
2021/10/27 03:44:21;;;;;;;3.45;1.33;;;;;;;;;;5047213;27;20396;-83
2021/10/27 03:46:49;;;;;;;2.90;1.20;;;;;;;;;;5048604;28;20037;-87
2021/10/27 03:49:16;;;;;;;2.83;1.23;;;;;;;;;;5046649;27;20492;-84
2021/10/27 03:51:42;;;;;;;2.65;1.25;;;;;;;;;;5048344;27;20484;-89
2021/10/27 03:54:08;;;;;;;4.03;1.40;;;;;;;;;;5047046;28;20028;-83
2021/10/27 03:56:34;;;;;;;2.15;0.93;;;;;;;;;;5048161;27;20030;-84
2021/10/27 03:59:00;;;;;;;3.15;1.27;;;;;;;;;;5047756;27;20397;-83
2021/10/27 04:01:26;;;;;;;4.07;1.60;;;;;;;;;;5047867;27;20380;-83
2021/10/27 04:03:52;;;;;;;3.47;1.00;;;;;;;;;;5046590;27;20033;-86
2021/10/27 04:06:18;;;;;;;2.95;1.20;;;;;;;;;;5048158;27;20024;-82
2021/10/27 04:08:44;;;;;;;2.25;1.00;;;;;;;;;;5046696;28;20037;-88
2021/10/27 04:11:10;;;;;;;1.65;0.85;;;;;;;;;;5046425;28;20078;-84
2021/10/27 04:13:37;;;;;;;2.95;1.10;;;;;;;;;;5046657;27;20025;-85
2021/10/27 04:16:03;;;;;;;2.78;1.33;;;;;;;;;;5047896;28;20553;-83
2021/10/27 04:18:29;;;;;;;3.33;1.35;;;;;;;;;;5047829;27;20158;-88
2021/10/27 04:20:57;;;;;;;3.17;1.42;;;;;;;;;;5046095;27;20081;-87
2021/10/27 04:23:23;;;;;;;2.85;1.27;;;;;;;;;;5048442;28;20032;-87
2021/10/27 04:25:49;;;;;;;2.80;1.05;;;;;;;;;;5047864;28;20393;-86
2021/10/27 04:28:15;;;;;;;3.50;1.33;;;;;;;;;;5051087;27;20381;-84
2021/10/27 04:30:41;;;;;;;2.42;0.90;;;;;;;;;;5051326;27;20365;-88
2021/10/27 04:33:17;;;;;;;2.63;1.02;;;;;;;;;;5051190;28;20029;-85
2021/10/27 04:35:45;;;;;;;3.20;1.00;;;;;;;;;;5051733;28;20036;-90
2021/10/27 04:38:11;;;;;;;3.40;1.27;;;;;;;;;;5052770;27;20035;-87
2021/10/27 04:40:37;;;;;;;1.73;0.88;;;;;;;;;;5051032;28;20075;-90
2021/10/27 04:43:03;;;;;;;3.63;1.10;;;;;;;;;;5050880;27;20036;-84
2021/10/27 04:45:31;;;;;;;2.80;1.13;;;;;;;;;;5050608;27;20041;-89
2021/10/27 04:47:57;;;;;;;2.42;1.00;;;;;;;;;;5050953;27;20025;-90
2021/10/27 04:50:23;;;;;;;3.25;1.40;;;;;;;;;;5053884;27;20096;-92
2021/10/27 04:52:49;;;;;;;3.65;1.13;;;;;;;;;;5051821;27;20060;-92
2021/10/27 04:55:15;;;;;;;3.67;1.27;;;;;;;;;;5052926;28;20025;-89
2021/10/27 04:57:41;;;;;;;1.85;1.00;;;;;;;;;;5049492;28;20081;-86
2021/10/27 05:00:07;;;;;;;5.82;1.75;;;;;;;;;;5051316;27;20067;-87
2021/10/27 05:02:33;;;;;;;2.08;1.00;;;;;;;;;;5051741;28;20132;-89
2021/10/27 05:04:59;;;;;;;3.45;1.10;;;;;;;;;;5050071;28;20029;-86
2021/10/27 05:07:25;;;;;;;2.58;1.13;;;;;;;;;;5051078;28;20099;-85
2021/10/27 05:09:51;;;;;;;3.00;1.23;;;;;;;;;;5051207;28;20060;-85
2021/10/27 05:12:17;;;;;;;4.68;1.30;;;;;;;;;;5051154;27;20027;-92
2021/10/27 05:14:44;;;;;;;1.88;1.27;;;;;;;;;;5051000;28;20033;-88
2021/10/27 05:17:11;;;;;;;2.85;1.27;;;;;;;;;;5049810;28;20048;-92
2021/10/27 05:19:38;;;;;;;3.42;1.17;;;;;;;;;;5050766;28;20031;-90
2021/10/27 05:22:04;;;;;;;2.45;1.27;;;;;;;;;;5048841;28;20033;-85
2021/10/27 05:24:30;;;;;;;3.88;1.15;;;;;;;;;;5049644;27;20021;-89
2021/10/27 05:26:56;;;;;;;2.75;1.40;;;;;;;;;;5053517;28;20044;-90
2021/10/27 05:29:22;;;;;;;1.98;1.00;;;;;;;;;;5058082;28;20028;-89
2021/10/27 05:31:49;;;;;;;4.20;1.30;;;;;;;;;;5050179;27;20090;-89
2021/10/27 05:34:15;;;;;;;1.92;0.90;;;;;;;;;;5052484;28;20122;-92
2021/10/27 05:36:42;;;;;;;2.72;1.17;;;;;;;;;;5051804;27;20041;-90
2021/10/27 05:39:10;;;;;;;2.80;1.23;;;;;;;;;;5050008;28;20055;-86
2021/10/27 05:41:37;;;;;;;2.22;1.30;;;;;;;;;;5049865;27;20025;-85
2021/10/27 05:44:03;;;;;;;3.97;1.17;;;;;;;;;;5049764;27;20094;-84
2021/10/27 05:46:29;;;;;;;2.40;1.00;;;;;;;;;;5049775;28;20209;-84
2021/10/27 05:49:04;;;;;;;3.15;1.30;;;;;;;;;;5050138;28;20025;-88
2021/10/27 05:51:44;;;;;;;;;;;;;;;;;;5050829;27;20025;-92
2021/10/27 05:56:55;;;;;;;2.92;1.13;;;;;;;;;;5049545;27;20032;-80
2021/10/27 05:59:21;;;;;;;4.00;1.67;;;;;;;;;;5050245;27;20025;-90
2021/10/27 06:01:47;;;;;;;5.22;2.10;;;;;;;;;;5050225;28;20037;-92
2021/10/27 06:04:13;;;;;;;3.30;1.13;;;;;;;;;;5048974;28;20025;-92
2021/10/27 06:06:39;;;;;;;3.78;1.23;;;;;;;;;;5051053;27;20108;-88
2021/10/27 06:09:05;;;;;;;2.80;1.42;;;;;;;;;;5049801;28;20024;-88
2021/10/27 06:11:32;;;;;;;3.70;1.30;;;;;;;;;;5049783;28;20441;-86
2021/10/27 06:13:59;;;;;;;2.25;1.35;;;;;;;;;;5049585;27;20073;-89
2021/10/27 06:16:25;;;;;;;3.95;1.33;;;;;;;;;;5049756;27;20036;-86
2021/10/27 06:18:51;;;;;;;3.85;2.10;;;;;;;;;;5049284;28;20025;-83
2021/10/27 06:21:17;;;;;;;3.55;1.67;;;;;;;;;;5049607;28;20461;-84
2021/10/27 06:23:43;;;;;;;3.17;1.50;;;;;;;;;;5048293;27;20029;-83
2021/10/27 06:26:11;;;;;;;3.13;1.45;;;;;;;;;;5049208;28;20100;-88
2021/10/27 06:47:13;;;;;;;4.00;2.03;;;;;;;;;;5048093;28;20511;-83
2021/10/27 06:49:39;;;;;;;4.68;1.77;;;;;;;;;;5047809;28;20446;-82
2021/10/27 06:52:05;;;;;;;5.35;2.67;;;;;;;;;;5048878;28;20021;-80
2021/10/27 06:54:32;;;;;;;3.78;1.80;;;;;;;;;;5048905;28;20049;-84
2021/10/27 06:56:58;;;;;;;6.55;2.47;;;;;;;;;;5047761;28;20070;-82
2021/10/27 07:17:34;;;;;;;6.85;2.55;;;;;;;;;;5048578;28;20025;-85
2021/10/27 07:20:01;;;;;;;4.63;2.78;;;;;;;;;;5048479;28;20017;-86
2021/10/27 07:22:27;;;;;;;3.65;2.30;;;;;;;;;;5048518;28;20049;-89
2021/10/27 07:24:53;;;;;;;9.90;2.58;;;;;;;;;;5046994;28;20107;-85
2021/10/27 07:27:19;;;;;;;6.45;2.83;;;;;;;;;;5048863;28;20033;-89
2021/10/27 07:29:46;;;;;;;4.05;2.33;;;;;;;;;;5045222;28;20061;-88
2021/10/27 07:32:14;;;;;;;4.53;2.42;;;;;;;;;;5028164;28;20033;-88
2021/10/27 07:34:53;;;;;;;8.73;2.70;;;;;;;;;;5028322;28;20026;-86
2021/10/27 07:43:01;;;;;;;4.72;2.13;;;;;;;;;;5028348;28;20045;-77
2021/10/27 07:45:28;;;;;;;6.82;2.30;;;;;;;;;;5028361;28;20030;-91
2021/10/27 07:47:54;;;;;;;5.13;2.55;;;;;;;;;;5028175;28;20098;-89
2021/10/27 07:50:22;;;;;;;5.95;2.50;;;;;;;;;;5027804;28;20022;-90
2021/10/27 07:52:48;;;;;;;5.60;2.90;;;;;;;;;;5028691;28;20033;-87
2021/10/27 07:55:14;;;;;;;6.22;2.78;;;;;;;;;;5028138;28;20021;-88
2021/10/27 07:57:42;;;;;;;5.05;2.55;;;;;;;;;;5028188;28;20433;-88
2021/10/27 08:00:09;;;;;;;4.53;2.50;;;;;;;;;;5029819;28;20049;-89
2021/10/27 08:02:35;;;;;;;5.55;3.30;;;;;;;;;;5031603;28;20063;-86
2021/10/27 08:05:02;;;;;;;7.25;2.72;;;;;;;;;;5031649;28;20025;-89
2021/10/27 08:07:28;;;;;;;7.22;3.33;;;;;;;;;;5031611;28;20026;-87
2021/10/27 08:09:54;;;;;;;7.78;2.80;;;;;;;;;;5031656;28;20493;-89
2021/10/27 08:12:20;;;;;;;6.25;3.00;;;;;;;;;;5032071;28;20068;-89
2021/10/27 08:14:47;;;;;;;4.00;2.65;;;;;;;;;;5032037;28;20064;-86
2021/10/27 08:17:13;;;;;;;6.22;2.47;;;;;;;;;;5031402;28;20026;-90
2021/10/27 08:19:39;;;;;;;4.70;2.97;;;;;;;;;;5031579;28;20026;-84
2021/10/27 08:22:07;;;;;;;6.93;3.20;;;;;;;;;;5031262;28;20374;-90
2021/10/27 08:24:33;;;;;;;6.68;2.97;;;;;;;;;;5031628;28;20052;-88
2021/10/27 08:27:08;;;;;;;5.32;2.70;;;;;;;;;;5031225;28;20026;-87
2021/10/27 08:29:39;;;;;;;4.45;2.55;;;;;;;;;;5031377;28;20049;-88
2021/10/27 08:32:50;;;;;;;5.68;2.95;;;;;;;;;;5031337;28;20033;-87
2021/10/27 08:34:56;;;;;;;6.75;3.08;;;;;;;;;;5036122;28;20026;-89
2021/10/27 08:37:24;;;;;;;6.60;3.40;;;;;;;;;;5031420;28;20025;-89
2021/10/27 08:39:50;;;;;;;6.03;2.63;;;;;;;;;;5031570;28;20025;-88
2021/10/27 08:42:16;;;;;;;6.65;2.80;;;;;;;;;;5030965;28;20060;-85
2021/10/27 08:44:42;;;;;;;4.00;2.65;;;;;;;;;;5031081;28;20022;-84
2021/10/27 08:47:09;;;;;;;9.98;2.63;;;;;;;;;;5030961;28;20037;-82
2021/10/27 08:49:35;;;;;;;4.57;2.80;;;;;;;;;;5031167;28;20029;-84
2021/10/27 08:52:05;;;;;;;7.53;3.22;;;;;;;;;;5030786;28;20022;-84
2021/10/27 08:54:31;;;;;;;4.88;2.88;;;;;;;;;;5030969;28;20026;-83
2021/10/27 08:57:02;;;;;;;5.53;2.95;;;;;;;;;;5030826;28;20354;-87
2021/10/27 09:04:54;;;;;;;5.57;2.95;;;;;;;;;;5030646;28;20025;-84
2021/10/27 09:16:19;;;;;;;4.60;2.95;;;;;;;;;;5030164;28;20117;-85
2021/10/27 09:35:43;;;;;;;4.80;2.80;;;;;;;;;;5030787;28;20166;-90
2021/10/27 10:05:12;;;;;;;5.28;3.55;;;;;;;;;;5030239;28;20082;-91
2021/10/27 10:07:39;;;;;;;5.75;3.60;;;;;;;;;;5030454;28;20029;-92
2021/10/27 10:10:07;;;;;;;4.90;3.35;;;;;;;;;;5030171;28;20021;-84
2021/10/27 10:12:35;;;;;;;6.35;3.83;;;;;;;;;;5030051;28;20035;-87
2021/10/27 10:15:01;;;;;;;3.50;2.90;;;;;;;;;;5029687;28;20104;-86
2021/10/27 10:17:27;;;;;;;4.55;3.40;;;;;;;;;;5029921;28;20104;-89
2021/10/27 10:19:54;;;;;;;4.68;3.10;;;;;;;;;;5029063;28;20021;-86
2021/10/27 10:22:30;;;;;;;6.55;3.63;;;;;;;;;;5030242;28;20405;-87
2021/10/27 10:25:16;;;;;;;6.78;3.08;;;;;;;;;;5040023;28;20017;-89
2021/10/27 10:27:43;;;;;;;5.30;2.85;;;;;;;;;;5035705;28;20547;-88
2021/10/27 10:30:31;;;;;;;3.97;2.80;;;;;;;;;;5033853;28;20025;-85
2021/10/27 10:33:01;;;;;;;4.22;2.97;;;;;;;;;;5034885;28;20028;-87
2021/10/27 10:35:35;;;;;;;4.95;2.55;;;;;;;;;;5037286;28;20032;-88
2021/10/27 10:38:09;;;;;;;3.63;2.20;;;;;;;;;;5042453;28;20043;-90
2021/10/27 10:41:16;;;;;;;6.35;2.40;;;;;;;;;;5039256;28;20037;-88
2021/10/27 11:25:30;;;;;;;5.43;2.53;;;;;;;;;;5031175;28;20029;-90
2021/10/27 11:42:57;;;;;;;3.65;2.60;;;;;;;;;;5036909;28;20410;-87
2021/10/27 11:45:12;;;;;;;6.60;2.72;;;;;;;;;;5030750;28;20033;-90
2021/10/27 11:47:40;;;;;;;8.63;2.78;;;;;;;;;;5036400;28;20029;-88
2021/10/27 11:50:07;;;;;;;5.82;3.05;;;;;;;;;;5042108;28;20022;-89
2021/10/27 11:52:37;;;;;;;8.35;3.65;;;;;;;;;;5049108;28;20481;-89
2021/10/27 11:55:05;;;;;;;5.55;2.78;;;;;;;;;;5036735;28;20041;-87
2021/10/27 11:57:34;;;;;;;8.70;2.95;;;;;;;;;;5029383;28;20028;-83
2021/10/27 12:00:05;;;;;;;4.70;2.65;;;;;;;;;;5028328;28;20104;-86
2021/10/27 12:02:47;;;;;;;5.60;2.85;;;;;;;;;;5029653;28;20492;-93
2021/10/27 12:05:20;;;;;;;5.60;2.47;;;;;;;;;;5028529;28;20028;-83
2021/10/27 12:07:56;;;;;;;5.45;2.70;;;;;;;;;;5029253;28;20051;-91
2021/10/27 12:10:42;;;;;;;6.90;3.35;;;;;;;;;;5029080;28;20465;-91
2021/10/27 12:13:15;;;;;;;5.40;2.88;;;;;;;;;;5028669;28;20041;-93
2021/10/27 12:16:02;;;;;;;4.75;2.92;;;;;;;;;;5028918;28;20025;-94
2021/10/27 12:18:28;;;;;;;5.40;2.88;;;;;;;;;;5029088;28;20025;-90
2021/10/27 12:20:57;;;;;;;3.33;2.08;;;;;;;;;;5028601;28;20113;-94
2021/10/27 12:23:27;;;;;;;5.68;2.38;;;;;;;;;;5028996;28;20041;-88
2021/10/27 12:26:04;;;;;;;5.55;2.47;;;;;;;;;;5038720;28;20059;-88
2021/10/27 12:28:33;;;;;;;8.57;3.13;;;;;;;;;;5047022;28;20507;-85
2021/10/27 12:31:18;;;;;;;3.60;2.20;;;;;;;;;;5047966;28;20025;-79
2021/10/27 12:33:45;;;;;;;9.33;2.30;;;;;;;;;;5048134;28;20033;-90
2021/10/27 12:39:12;;;;;;;7.30;2.35;;;;;;;;;;5049671;28;20029;-79
2021/10/27 12:41:38;;;;;;;6.15;2.22;;;;;;;;;;5046818;28;20032;-91
2021/10/27 12:44:21;;;;;;;4.18;2.40;;;;;;;;;;5048048;28;20081;-90
2021/10/27 12:46:48;;;;;;;3.80;2.05;;;;;;;;;;5047880;28;20044;-88
2021/10/27 12:49:21;;;;;;;5.07;2.17;;;;;;;;;;5051281;28;20021;-85
2021/10/27 12:51:48;;;;;;;5.40;2.20;;;;;;;;;;5051036;28;20021;-88
2021/10/27 12:54:14;;;;;;;3.05;2.00;;;;;;;;;;5051831;28;20068;-94
2021/10/27 12:56:41;;;;;;;3.72;2.10;;;;;;;;;;5051427;28;20067;-91
2021/10/27 12:59:09;;;;;;;3.88;2.03;;;;;;;;;;5053869;28;20033;-87
2021/10/27 13:01:51;;;;;;;2.95;2.00;;;;;;;;;;5061909;28;20018;-94
2021/10/27 13:04:57;;;;;;;4.97;1.92;;;;;;;;;;5075990;28;20021;-89
2021/10/27 13:07:19;;;;;;;6.47;2.08;;;;;;;;;;5073383;28;20041;-80
2021/10/27 13:15:17;;;;;;;3.40;2.10;;;;;;;;;;5053170;28;20033;-89
2021/10/27 13:18:08;;;;;;;4.05;2.10;;;;;;;;;;5051029;28;20025;-79
2021/10/27 13:23:43;;;;;;;3.28;1.73;;;;;;;;;;5053771;28;19912;-84
2021/10/27 13:29:35;;;;;;;3.85;1.85;;;;;;;;;;5050903;28;20063;-84
2021/10/27 13:31:49;;;;;;;4.90;1.80;;;;;;;;;;5052396;28;20033;-78
2021/10/27 13:34:15;;;;;;;3.97;2.00;;;;;;;;;;5047685;28;20020;-85
2021/10/27 13:36:41;;;;;;;3.80;1.88;;;;;;;;;;5051268;28;20124;-87
2021/10/27 13:39:07;;;;;;;3.97;1.95;;;;;;;;;;5052510;28;20522;-79
2021/10/27 13:41:35;;;;;;;3.47;2.00;;;;;;;;;;5049576;28;20477;-92
2021/10/27 13:44:08;;;;;;;3.65;2.05;;;;;;;;;;5050266;28;20022;-90
2021/10/27 14:08:45;;;;;;;2.40;1.60;;;;;;;;;;5029886;27;20086;-83
2021/10/27 14:11:22;;;;;;;3.80;1.67;;;;;;;;;;5046298;28;20530;-83
2021/10/27 15:22:51;;;;;;;1.75;1.00;;;;;;;;;;5048041;28;20299;-82
2021/10/27 15:30:30;;;;;;;3.72;1.10;;;;;;;;;;5048412;28;20037;-88
2021/10/27 15:51:47;;;;;;;2.15;1.20;;;;;;;;;;5048648;28;20040;-88
2021/10/27 15:54:14;;;;;;;2.97;1.20;;;;;;;;;;5048124;28;20032;-81
2021/10/27 15:56:40;;;;;;;6.05;1.65;;;;;;;;;;5048302;28;20150;-93
2021/10/27 15:59:06;;;;;;;2.40;1.20;;;;;;;;;;5048450;28;20022;-88
2021/10/27 16:01:32;;;;;;;2.25;1.10;;;;;;;;;;5048315;28;20423;-86
2021/10/27 16:03:58;;;;;;;3.53;1.23;;;;;;;;;;5048142;28;20105;-85
2021/10/27 16:06:26;;;;;;;3.67;1.75;;;;;;;;;;5047186;28;20476;-86
2021/10/27 16:08:56;;;;;;;4.22;1.30;;;;;;;;;;5048071;28;20057;-90
2021/10/27 16:11:23;;;;;;;2.67;1.20;;;;;;;;;;5047030;28;20028;-90
2021/10/27 16:13:49;;;;;;;3.03;1.30;;;;;;;;;;5048670;28;20047;-89
2021/10/27 16:16:16;;;;;;;3.40;1.20;;;;;;;;;;5047609;28;20052;-88
2021/10/27 16:18:42;;;;;;;4.22;1.42;;;;;;;;;;5041111;28;20029;-88
2021/10/27 16:21:08;;;;;;;3.08;1.42;;;;;;;;;;5048702;27;20058;-83
2021/10/27 16:23:35;;;;;;;3.00;1.70;;;;;;;;;;5049999;28;20029;-83
2021/10/27 16:26:01;;;;;;;3.05;1.80;;;;;;;;;;5050806;28;20025;-86
2021/10/27 16:28:27;;;;;;;4.38;1.70;;;;;;;;;;5051040;28;20473;-82
2021/10/27 16:30:53;;;;;;;4.00;2.10;;;;;;;;;;5050548;28;20528;-82
2021/10/27 16:33:21;;;;;;;2.88;1.70;;;;;;;;;;5050994;28;20028;-83
2021/10/27 16:35:47;;;;;;;2.88;1.48;;;;;;;;;;5051258;28;20029;-80
2021/10/27 16:38:13;;;;;;;3.60;1.40;;;;;;;;;;5049883;28;20388;-81
2021/10/27 16:40:40;;;;;;;4.43;1.33;;;;;;;;;;5050670;28;20029;-79
2021/10/27 16:43:06;;;;;;;4.25;1.15;;;;;;;;;;5050143;28;20040;-81
2021/10/27 16:45:33;;;;;;;4.57;1.77;;;;;;;;;;5050907;28;20066;-80
2021/10/27 16:47:59;;;;;;;5.43;2.03;;;;;;;;;;5049139;28;20643;-79
2021/10/27 16:50:25;;;;;;;2.80;1.13;;;;;;;;;;5050379;28;20104;-79
2021/10/27 16:52:51;;;;;;;6.03;1.52;;;;;;;;;;5050404;28;20366;-78
2021/10/27 16:55:19;;;;;;;4.55;1.30;;;;;;;;;;5051252;27;20051;-82
2021/10/27 16:57:46;;;;;;;4.30;1.42;;;;;;;;;;5049435;28;20089;-79
2021/10/27 17:00:13;;;;;;;3.75;1.20;;;;;;;;;;5043657;28;20025;-79
2021/10/27 17:02:39;;;;;;;3.15;1.08;;;;;;;;;;5030778;28;20121;-82
2021/10/27 17:05:06;;;;;;;8.50;1.45;;;;;;;;;;5030689;28;20431;-79
2021/10/27 17:07:32;;;;;;;4.30;1.58;;;;;;;;;;5045420;28;20090;-80
2021/10/27 17:09:59;;;;;;;6.70;1.85;;;;;;;;;;5049095;28;20022;-79
2021/10/27 17:12:25;;;;;;;4.18;1.13;;;;;;;;;;5048825;28;20556;-81
2021/10/27 17:14:51;;;;;;;2.85;1.55;;;;;;;;;;5049447;28;20009;-77
2021/10/27 17:17:17;;;;;;;3.83;2.05;;;;;;;;;;5049415;28;20031;-79
2021/10/27 17:19:44;;;;;;;5.35;2.22;;;;;;;;;;5049371;28;20028;-79
2021/10/27 17:22:12;;;;;;;5.30;2.30;;;;;;;;;;5049596;28;20045;-79
2021/10/27 17:24:38;;;;;;;10.75;2.97;;;;;;;;;;5050926;28;20021;-79
2021/10/27 17:27:04;;;;;;;9.70;4.95;;;;;;;;;;5049779;28;20033;-79
2021/10/27 17:29:31;;;;;;;13.40;6.57;;;;;;;;;;5050450;28;20030;-80
2021/10/27 17:31:57;;;;;;;15.45;6.78;;;;;;;;;;5048132;28;20544;-80
2021/10/27 17:34:24;;;;;;;20.83;7.68;;;;;;;;;;5050252;28;20029;-84
2021/10/27 17:36:50;;;;;;;17.55;7.93;;;;;;;;;;5048578;28;20074;-81
2021/10/27 17:39:16;;;;;;;19.55;8.80;;;;;;;;;;5052795;27;20021;-82
2021/10/27 17:41:46;;;;;;;19.80;8.30;;;;;;;;;;5048366;28;20059;-82
2021/10/27 17:44:13;;;;;;;15.10;7.82;;;;;;;;;;5046936;28;20058;-83
2021/10/27 17:46:50;;;;;;;14.25;6.70;;;;;;;;;;5041691;28;20485;-82
2021/10/27 18:00:04;;;;;;;9.82;4.80;;;;;;;;;;5040646;28;20033;-82
2021/10/27 18:02:30;;;;;;;9.68;4.72;;;;;;;;;;5036363;28;20041;-82
2021/10/27 18:04:57;;;;;;;7.00;4.28;;;;;;;;;;5045223;28;20021;-80
2021/10/27 18:07:27;;;;;;;7.63;4.40;;;;;;;;;;5031596;28;20029;-87
2021/10/27 18:09:53;;;;;;;13.10;4.60;;;;;;;;;;5041477;28;20022;-87
2021/10/27 18:12:25;;;;;;;7.95;4.28;;;;;;;;;;5042010;28;20123;-81
2021/10/27 18:14:52;;;;;;;7.50;3.65;;;;;;;;;;5033838;28;20014;-78
2021/10/27 18:17:21;;;;;;;6.18;3.55;;;;;;;;;;5045937;28;20125;-86
2021/10/27 18:26:03;;;;;;;8.00;3.53;;;;;;;;;;4987758;28;20034;-86
2021/10/27 18:28:38;;;;;;;7.93;3.40;;;;;;;;;;5024964;28;20041;-84
2021/10/27 18:36:44;;;;;;;8.95;3.28;;;;;;;;;;5036158;28;20041;-84
2021/10/27 18:39:21;;;;;;;5.88;2.92;;;;;;;;;;5044945;28;20061;-87
2021/10/27 18:41:54;;;;;;;7.13;3.08;;;;;;;;;;5037330;28;20029;-81
2021/10/27 18:44:21;;;;;;;6.88;2.75;;;;;;;;;;5035056;28;20041;-82
2021/10/27 18:46:48;;;;;;;6.60;2.95;;;;;;;;;;5038153;27;20036;-83
2021/10/27 18:49:18;;;;;;;6.30;2.45;;;;;;;;;;5038003;27;20025;-77
2021/10/27 18:54:35;;;;;;;8.40;3.13;;;;;;;;;;5042361;28;20073;-78
2021/10/27 19:02:13;;;;;;;4.80;2.53;;;;;;;;;;5033032;28;20390;-88
2021/10/27 19:15:58;;;;;;;10.02;2.90;;;;;;;;;;4993295;28;20383;-82
2021/10/27 19:18:24;;;;;;;8.65;3.53;;;;;;;;;;5018042;28;20037;-85
2021/10/27 19:20:53;;;;;;;10.32;2.90;;;;;;;;;;5041480;28;20493;-78
2021/10/27 19:23:20;;;;;;;7.32;3.05;;;;;;;;;;5044127;28;20025;-87
2021/10/27 19:31:02;;;;;;;13.57;4.50;;;;;;;;;;5032089;28;20120;-84
2021/10/27 20:50:25;;;;;;;9.23;2.80;;;;;;;;;;5035994;28;20064;-83
2021/10/27 20:53:36;;;;;;;7.60;3.30;;;;;;;;;;5041229;28;20021;-81
2021/10/27 20:55:39;;;;;;;11.32;3.08;;;;;;;;;;5026628;28;20033;-81
2021/10/27 20:58:15;;;;;;;8.60;2.90;;;;;;;;;;5035244;28;20044;-85
2021/10/27 21:14:00;;;;;;;6.35;2.30;;;;;;;;;;5035102;28;20037;-83
2021/10/27 21:16:26;;;;;;;6.70;2.63;;;;;;;;;;5041838;28;20408;-85
2021/10/27 21:18:53;;;;;;;6.72;2.63;;;;;;;;;;5048671;28;20021;-83
2021/10/27 21:21:19;;;;;;;5.45;2.50;;;;;;;;;;5049273;28;20028;-85
2021/10/27 21:23:45;;;;;;;8.27;2.67;;;;;;;;;;5050429;28;20029;-84
2021/10/27 21:26:11;;;;;;;9.93;2.55;;;;;;;;;;5050387;28;20025;-87
2021/10/27 21:28:55;;;;;;;6.13;2.33;;;;;;;;;;5050851;28;20025;-89
2021/10/27 21:44:38;;;;;;;8.10;2.67;;;;;;;;;;5029391;28;20044;-82
2021/10/27 21:47:04;;;;;;;4.40;1.95;;;;;;;;;;5029746;28;20519;-83
2021/10/27 21:49:30;;;;;;;5.22;2.30;;;;;;;;;;5030114;28;20057;-82
2021/10/27 21:51:56;;;;;;;7.75;2.00;;;;;;;;;;5029982;28;20074;-83
2021/10/27 21:54:22;;;;;;;4.95;2.03;;;;;;;;;;5029563;28;20431;-82
2021/10/27 21:56:48;;;;;;;5.90;1.92;;;;;;;;;;5030073;28;20041;-82
2021/10/27 21:59:14;;;;;;;7.93;2.72;;;;;;;;;;5029910;28;20099;-83
2021/10/27 22:01:44;;;;;;;7.68;2.80;;;;;;;;;;5029935;28;20029;-83
2021/10/27 22:04:10;;;;;;;6.72;2.47;;;;;;;;;;5029864;28;20025;-83
2021/10/27 22:06:36;;;;;;;4.22;1.90;;;;;;;;;;5029914;28;20097;-82
2021/10/27 22:09:02;;;;;;;4.88;2.00;;;;;;;;;;5028285;28;20121;-82